| time (UTC) | temp C | wind direction | speed KPH | gust KPH | rain 1hr cm | rain 24hr cm | rain mn cm | humidity % | barometer mb |
| 20260906143850 | 21 | 295 | 4.8 | 11.3 | 0.00 | 0.00 | 0.00 | 74 | 1018.9 |
| 20260906143011 | 21 | 59 | 3.2 | 17.7 | 0.00 | 0.00 | 0.00 | 74 | 1020.1 |
| 20260906142827 | 21 | 124 | 4.8 | 16.1 | 0.00 | 0.00 | 0.00 | 75 | 1018.9 |
| 20260906141749 | 21 | 11 | 4.8 | 16.1 | 0.00 | 0.00 | 0.00 | 75 | 1019.0 |
| 20260906141517 | 20 | 39 | 4.8 | 17.7 | 0.00 | 0.00 | 0.00 | 74 | 1020.2 |
| 20260906140729 | 21 | 350 | 6.4 | 16.1 | 0.00 | 0.00 | 0.00 | 75 | 1019.1 |
| 20260906140032 | 20 | 221 | 6.4 | 17.7 | 0.00 | 0.00 | 0.00 | 75 | 1020.2 |
| 20260906135703 | 20 | 322 | 6.4 | 12.9 | 0.00 | 0.00 | 0.00 | 75 | 1019.0 |
| 20260906135136 | 20 | 21 | 6.4 | 12.9 | 0.00 | 0.00 | 0.00 | 75 | 1019.1 |
| 20260906134613 | 20 | 220 | 6.4 | 12.9 | 0.00 | 0.00 | 0.00 | 75 | 1019.2 |
| 20260906134527 | 20 | 333 | 4.8 | 14.5 | 0.00 | 0.00 | 0.00 | 74 | 1020.4 |
| 20260906133031 | 20 | 342 | 4.8 | 16.1 | 0.00 | 0.00 | 0.00 | 75 | 1020.3 |
| 20260906132530 | 20 | 20 | 6.4 | 12.9 | 0.00 | 0.00 | 0.00 | 75 | 1019.1 |
| 20260906132032 | 20 | 11 | 4.8 | 11.3 | 0.00 | 0.00 | 0.00 | 75 | 1019.1 |
| 20260906131514 | 19 | 325 | 3.2 | 12.9 | 0.00 | 0.00 | 0.00 | 74 | 1020.1 |
| 20260906131506 | 20 | 354 | 3.2 | 11.3 | 0.00 | 0.00 | 0.00 | 75 | 1018.9 |
| 20260906131008 | 20 | 42 | 4.8 | 8.0 | 0.00 | 0.00 | 0.00 | 75 | 1019.1 |
| 20260906130446 | 20 | 1 | 4.8 | 9.7 | 0.00 | 0.00 | 0.00 | 75 | 1019.1 |
| 20260906130022 | 19 | 342 | 3.2 | 11.3 | 0.00 | 0.00 | 0.00 | 74 | 1020.3 |
| 20260906125942 | 19 | 1 | 4.8 | 9.7 | 0.00 | 0.00 | 0.00 | 75 | 1019.1 |
| 20260906125420 | 19 | 6 | 4.8 | 11.3 | 0.00 | 0.00 | 0.00 | 75 | 1018.9 |
| 20260906124920 | 19 | 11 | 4.8 | 8.0 | 0.00 | 0.00 | 0.00 | 75 | 1018.8 |
| 20260906124504 | 18 | 338 | 4.8 | 8.0 | 0.00 | 0.00 | 0.00 | 74 | 1020.0 |
| 20260906123818 | 19 | 18 | 4.8 | 8.0 | 0.00 | 0.00 | 0.00 | 74 | 1018.7 |
| 20260906123252 | 18 | 21 | 3.2 | 8.0 | 0.00 | 0.00 | 0.00 | 75 | 1018.6 |
| 20260906123016 | 18 | 13 | 3.2 | 6.4 | 0.00 | 0.00 | 0.00 | 74 | 1019.7 |
| 20260906122251 | 18 | 9 | 3.2 | 8.0 | 0.00 | 0.00 | 0.00 | 74 | 1018.4 |
| 20260906121729 | 18 | 347 | 3.2 | 8.0 | 0.00 | 0.00 | 0.00 | 74 | 1018.4 |
| 20260906121511 | 18 | 342 | 3.2 | 8.0 | 0.00 | 0.00 | 0.00 | 74 | 1019.6 |
| 20260906120218 | 18 | 11 | 3.2 | 8.0 | 0.00 | 0.00 | 0.00 | 74 | 1018.4 |
| 20260906120005 | 18 | 26 | 3.2 | 8.0 | 0.00 | 0.00 | 0.00 | 73 | 1019.6 |
| 20260906115710 | 18 | 46 | 4.8 | 9.7 | 0.00 | 0.00 | 0.00 | 74 | 1018.4 |
| 20260906115210 | 18 | 1 | 4.8 | 9.7 | 0.00 | 0.00 | 0.00 | 74 | 1018.3 |
| 20260906114652 | 18 | 342 | 4.8 | 8.0 | 0.00 | 0.00 | 0.00 | 74 | 1018.4 |
| 20260906114512 | 18 | 46 | 3.2 | 8.0 | 0.00 | 0.00 | 0.00 | 73 | 1019.6 |
| 20260906114155 | 18 | 23 | 4.8 | 9.7 | 0.00 | 0.00 | 0.00 | 74 | 1018.3 |
| 20260906113628 | 18 | 344 | 4.8 | 9.7 | 0.00 | 0.00 | 0.00 | 73 | 1018.2 |
| 20260906113124 | 18 | 347 | 4.8 | 9.7 | 0.00 | 0.00 | 0.00 | 73 | 1018.0 |
| 20260906113004 | 18 | 15 | 4.8 | 11.3 | 0.00 | 0.00 | 0.00 | 73 | 1019.1 |
| 20260906112600 | 18 | 6 | 4.8 | 9.7 | 0.00 | 0.00 | 0.00 | 73 | 1017.9 |
| 20260906112038 | 18 | 37 | 4.8 | 11.3 | 0.00 | 0.00 | 0.00 | 73 | 1017.8 |
| 20260906111538 | 18 | 46 | 4.8 | 11.3 | 0.00 | 0.00 | 0.00 | 73 | 1017.6 |
| 20260906111510 | 18 | 51 | 4.8 | 11.3 | 0.00 | 0.00 | 0.00 | 73 | 1018.6 |
| 20260906111020 | 18 | 348 | 6.4 | 11.3 | 0.00 | 0.00 | 0.00 | 73 | 1017.5 |
| 20260906110519 | 18 | 15 | 6.4 | 11.3 | 0.00 | 0.00 | 0.00 | 73 | 1017.4 |
| 20260906110018 | 18 | 8 | 6.4 | 11.3 | 0.00 | 0.00 | 0.00 | 73 | 1017.4 |
| 20260906110010 | 18 | 316 | 4.8 | 12.9 | 0.00 | 0.00 | 0.00 | 72 | 1018.5 |
| 20260906105513 | 18 | 28 | 6.4 | 11.3 | 0.00 | 0.00 | 0.00 | 73 | 1017.3 |
| 20260906104956 | 18 | 324 | 6.4 | 11.3 | 0.00 | 0.00 | 0.00 | 72 | 1017.3 |
| 20260906104509 | 18 | 9 | 4.8 | 12.9 | 0.00 | 0.00 | 0.00 | 72 | 1018.4 |
| 20260906104455 | 18 | 352 | 6.4 | 11.3 | 0.00 | 0.00 | 0.00 | 72 | 1017.4 |
| 20260906103933 | 18 | 343 | 6.4 | 11.3 | 0.00 | 0.00 | 0.00 | 72 | 1017.4 |
| 20260906103432 | 18 | 346 | 6.4 | 11.3 | 0.00 | 0.00 | 0.00 | 72 | 1017.3 |
| 20260906103012 | 18 | 334 | 4.8 | 11.3 | 0.00 | 0.00 | 0.00 | 71 | 1018.4 |
| 20260906102902 | 18 | 351 | 6.4 | 9.7 | 0.00 | 0.00 | 0.00 | 72 | 1017.3 |
| 20260906101823 | 18 | 25 | 6.4 | 11.3 | 0.00 | 0.00 | 0.00 | 71 | 1017.2 |
| 20260906101504 | 18 | 347 | 4.8 | 9.7 | 0.00 | 0.00 | 0.00 | 71 | 1018.2 |
| 20260906101307 | 18 | 327 | 6.4 | 9.7 | 0.00 | 0.00 | 0.00 | 71 | 1017.1 |
| 20260906100808 | 18 | 328 | 6.4 | 9.7 | 0.00 | 0.00 | 0.00 | 71 | 1017.2 |
| 20260906100244 | 18 | 20 | 6.4 | 9.7 | 0.00 | 0.00 | 0.00 | 71 | 1017.0 |
| 20260906100027 | 18 | 15 | 4.8 | 11.3 | 0.00 | 0.00 | 0.00 | 70 | 1018.1 |
| 20260906095742 | 18 | 30 | 6.4 | 9.7 | 0.00 | 0.00 | 0.00 | 71 | 1016.8 |
| 20260906095243 | 18 | 342 | 6.4 | 9.7 | 0.00 | 0.00 | 0.00 | 71 | 1016.8 |
| 20260906094742 | 18 | 351 | 4.8 | 9.7 | 0.00 | 0.00 | 0.00 | 70 | 1017.0 |
| 20260906094519 | 18 | 347 | 6.4 | 11.3 | 0.00 | 0.00 | 0.00 | 70 | 1018.1 |
| 20260906094215 | 18 | 352 | 4.8 | 8.0 | 0.00 | 0.00 | 0.00 | 70 | 1017.0 |
| 20260906093655 | 18 | 0 | 4.8 | 9.7 | 0.00 | 0.00 | 0.00 | 70 | 1017.0 |
| 20260906093125 | 18 | 1 | 4.8 | 9.7 | 0.00 | 0.00 | 0.00 | 70 | 1016.8 |
| 20260906093018 | 18 | 346 | 4.8 | 11.3 | 0.00 | 0.00 | 0.00 | 69 | 1018.0 |
| 20260906092626 | 18 | 346 | 4.8 | 9.7 | 0.00 | 0.00 | 0.00 | 69 | 1016.8 |
| 20260906092105 | 18 | 8 | 6.4 | 11.3 | 0.00 | 0.00 | 0.00 | 69 | 1017.0 |
| 20260906091539 | 18 | 15 | 6.4 | 9.7 | 0.00 | 0.00 | 0.00 | 69 | 1017.0 |
| 20260906091504 | 18 | 336 | 4.8 | 11.3 | 0.00 | 0.00 | 0.00 | 69 | 1018.1 |
| 20260906091042 | 18 | 6 | 6.4 | 9.7 | 0.00 | 0.00 | 0.00 | 69 | 1017.0 |
| 20260906090518 | 18 | 11 | 6.4 | 9.7 | 0.00 | 0.00 | 0.00 | 68 | 1016.8 |
| 20260906090016 | 18 | 23 | 6.4 | 11.3 | 0.00 | 0.00 | 0.00 | 68 | 1016.8 |
| 20260906090008 | 18 | 30 | 4.8 | 12.9 | 0.00 | 0.00 | 0.00 | 67 | 1018.1 |
| 20260906085458 | 18 | 354 | 6.4 | 11.3 | 0.00 | 0.00 | 0.00 | 67 | 1017.0 |
| 20260906084958 | 18 | 13 | 6.4 | 11.3 | 0.00 | 0.00 | 0.00 | 67 | 1017.0 |
| 20260906084511 | 18 | 9 | 6.4 | 14.5 | 0.00 | 0.00 | 0.00 | 66 | 1018.2 |
| 20260906083913 | 19 | 4 | 6.4 | 12.9 | 0.00 | 0.00 | 0.00 | 66 | 1017.0 |
| 20260906083409 | 19 | 354 | 6.4 | 11.3 | 0.00 | 0.00 | 0.00 | 66 | 1017.0 |
| 20260906083023 | 18 | 9 | 4.8 | 11.3 | 0.00 | 0.00 | 0.00 | 65 | 1018.1 |
| 20260906082906 | 19 | 335 | 6.4 | 11.3 | 0.00 | 0.00 | 0.00 | 66 | 1016.8 |
| 20260906082408 | 19 | 341 | 6.4 | 11.3 | 0.00 | 0.00 | 0.00 | 65 | 1017.0 |
| 20260906081527 | 19 | 34 | 4.8 | 12.9 | 0.00 | 0.00 | 0.00 | 64 | 1018.2 |
| 20260906081333 | 19 | 32 | 4.8 | 11.3 | 0.00 | 0.00 | 0.00 | 65 | 1017.0 |
| 20260906080832 | 19 | 340 | 4.8 | 9.7 | 0.00 | 0.00 | 0.00 | 64 | 1017.0 |
| 20260906080328 | 19 | 336 | 4.8 | 8.0 | 0.00 | 0.00 | 0.00 | 64 | 1016.8 |
| 20260906080029 | 19 | 47 | 4.8 | 8.0 | 0.00 | 0.00 | 0.00 | 64 | 1018.0 |
| 20260906075804 | 19 | 44 | 4.8 | 8.0 | 0.00 | 0.00 | 0.00 | 64 | 1017.0 |
| 20260906074734 | 20 | 30 | 4.8 | 8.0 | 0.00 | 0.00 | 0.00 | 64 | 1017.1 |
| 20260906074514 | 19 | 19 | 3.2 | 8.0 | 0.00 | 0.00 | 0.00 | 63 | 1018.1 |
| 20260906074235 | 20 | 349 | 4.8 | 8.0 | 0.00 | 0.00 | 0.00 | 63 | 1017.0 |
| 20260906073709 | 20 | 350 | 4.8 | 9.7 | 0.00 | 0.00 | 0.00 | 63 | 1017.1 |
| 20260906073142 | 20 | 347 | 4.8 | 9.7 | 0.00 | 0.00 | 0.00 | 63 | 1017.1 |
| 20260906073017 | 20 | 330 | 4.8 | 9.7 | 0.00 | 0.00 | 0.00 | 63 | 1018.2 |
| 20260906072636 | 20 | 331 | 4.8 | 8.0 | 0.00 | 0.00 | 0.00 | 63 | 1017.1 |
| 20260906072128 | 20 | 13 | 4.8 | 9.7 | 0.00 | 0.00 | 0.00 | 63 | 1017.2 |
| 20260906071629 | 20 | 1 | 4.8 | 9.7 | 0.00 | 0.00 | 0.00 | 63 | 1017.3 |
| 20260906071515 | 20 | 23 | 4.8 | 11.3 | 0.00 | 0.00 | 0.00 | 62 | 1018.3 |
| 20260906071104 | 20 | 1 | 6.4 | 9.7 | 0.00 | 0.00 | 0.00 | 63 | 1017.3 |
| 20260906070606 | 20 | 354 | 6.4 | 9.7 | 0.00 | 0.00 | 0.00 | 63 | 1017.5 |
| 20260906070031 | 20 | 338 | 4.8 | 8.0 | 0.00 | 0.00 | 0.00 | 62 | 1018.6 |
| 20260906065014 | 20 | 1 | 3.2 | 6.4 | 0.00 | 0.00 | 0.00 | 62 | 1017.5 |
| 20260906064530 | 20 | 329 | 3.2 | 6.4 | 0.00 | 0.00 | 0.00 | 62 | 1018.5 |
| 20260906064513 | 20 | 1 | 3.2 | 6.4 | 0.00 | 0.00 | 0.00 | 62 | 1017.5 |
| 20260906064004 | 20 | 1 | 3.2 | 6.4 | 0.00 | 0.00 | 0.00 | 62 | 1017.5 |
| 20260906063458 | 20 | 344 | 3.2 | 6.4 | 0.00 | 0.00 | 0.00 | 62 | 1017.4 |
| 20260906063015 | 20 | 342 | 3.2 | 6.4 | 0.00 | 0.00 | 0.00 | 61 | 1018.4 |
| 20260906062954 | 21 | 20 | 3.2 | 6.4 | 0.00 | 0.00 | 0.00 | 62 | 1017.3 |
| 20260906062455 | 21 | 9 | 3.2 | 6.4 | 0.00 | 0.00 | 0.00 | 61 | 1017.3 |
| 20260906061924 | 21 | 1 | 3.2 | 6.4 | 0.00 | 0.00 | 0.00 | 61 | 1017.4 |
| 20260906061522 | 21 | 9 | 3.2 | 6.4 | 0.00 | 0.00 | 0.00 | 61 | 1018.5 |
| 20260906061402 | 21 | 1 | 3.2 | 6.4 | 0.00 | 0.00 | 0.00 | 61 | 1017.4 |
| 20260906060856 | 21 | 15 | 3.2 | 6.4 | 0.00 | 0.00 | 0.00 | 61 | 1017.5 |
| 20260906060334 | 21 | 344 | 3.2 | 6.4 | 0.00 | 0.00 | 0.00 | 61 | 1017.4 |
| 20260906060023 | 21 | 344 | 3.2 | 4.8 | 0.00 | 0.00 | 0.00 | 61 | 1018.4 |
| 20260906055834 | 21 | 15 | 3.2 | 6.4 | 0.00 | 0.00 | 0.00 | 61 | 1017.3 |
| 20260906055308 | 21 | 32 | 3.2 | 6.4 | 0.00 | 0.00 | 0.00 | 61 | 1017.2 |
| 20260906054759 | 21 | 13 | 3.2 | 6.4 | 0.00 | 0.00 | 0.00 | 61 | 1017.1 |
| 20260906054516 | 21 | 332 | 1.6 | 8.0 | 0.00 | 0.00 | 0.00 | 61 | 1018.2 |
| 20260906053722 | 21 | 20 | 3.2 | 8.0 | 0.00 | 0.00 | 0.00 | 62 | 1017.1 |
| 20260906053150 | 21 | 347 | 3.2 | 8.0 | 0.00 | 0.00 | 0.00 | 62 | 1017.2 |
| 20260906053032 | 21 | 332 | 1.6 | 8.0 | 0.00 | 0.00 | 0.00 | 61 | 1018.3 |
| 20260906052616 | 21 | 1 | 3.2 | 8.0 | 0.00 | 0.00 | 0.00 | 62 | 1017.1 |
| 20260906052114 | 21 | 314 | 3.2 | 8.0 | 0.00 | 0.00 | 0.00 | 62 | 1017.1 |
| 20260906051606 | 21 | 340 | 3.2 | 8.0 | 0.00 | 0.00 | 0.00 | 62 | 1017.1 |
| 20260906051519 | 21 | 34 | 0.0 | 8.0 | 0.00 | 0.00 | 0.00 | 61 | 1018.2 |
| 20260906051047 | 21 | 8 | 4.8 | 9.7 | 0.00 | 0.00 | 0.00 | 62 | 1017.1 |
| 20260906050513 | 21 | 1 | 4.8 | 9.7 | 0.00 | 0.00 | 0.00 | 62 | 1017.0 |
| 20260906050028 | 21 | 334 | 1.6 | 11.3 | 0.00 | 0.00 | 0.00 | 61 | 1018.0 |
| 20260906050012 | 21 | 8 | 4.8 | 9.7 | 0.00 | 0.00 | 0.00 | 62 | 1016.8 |
| 20260906045513 | 21 | 32 | 4.8 | 11.3 | 0.00 | 0.00 | 0.00 | 62 | 1016.8 |
| 20260906045013 | 21 | 28 | 4.8 | 11.3 | 0.00 | 0.00 | 0.00 | 62 | 1016.8 |
| 20260906044527 | 21 | 344 | 4.8 | 9.7 | 0.00 | 0.00 | 0.00 | 61 | 1017.9 |
| 20260906043912 | 21 | 18 | 4.8 | 9.7 | 0.00 | 0.00 | 0.00 | 62 | 1016.6 |
| 20260906043355 | 21 | 354 | 4.8 | 9.7 | 0.00 | 0.00 | 0.00 | 62 | 1016.6 |
| 20260906043030 | 21 | 31 | 3.2 | 8.0 | 0.00 | 0.00 | 0.00 | 61 | 1017.8 |
| 20260906042857 | 21 | 8 | 3.2 | 9.7 | 0.00 | 0.00 | 0.00 | 62 | 1016.5 |
| 20260906042353 | 21 | 11 | 4.8 | 9.7 | 0.00 | 0.00 | 0.00 | 61 | 1016.4 |
| 20260906041855 | 21 | 354 | 4.8 | 9.7 | 0.00 | 0.00 | 0.00 | 61 | 1016.3 |
| 20260906041521 | 21 | 221 | 3.2 | 11.3 | 0.00 | 0.00 | 0.00 | 61 | 1017.6 |
| 20260906041327 | 21 | 20 | 4.8 | 9.7 | 0.00 | 0.00 | 0.00 | 61 | 1016.2 |
| 20260906040802 | 21 | 28 | 3.2 | 9.7 | 0.00 | 0.00 | 0.00 | 61 | 1016.2 |
| 20260906040234 | 21 | 9 | 4.8 | 9.7 | 0.00 | 0.00 | 0.00 | 61 | 1016.2 |
| 20260906040022 | 21 | 9 | 3.2 | 11.3 | 0.00 | 0.00 | 0.00 | 61 | 1017.6 |
| 20260906035730 | 21 | 1 | 4.8 | 11.3 | 0.00 | 0.00 | 0.00 | 61 | 1016.3 |
| 20260906035224 | 21 | 344 | 4.8 | 11.3 | 0.00 | 0.00 | 0.00 | 61 | 1016.2 |
| 20260906034701 | 21 | 6 | 4.8 | 9.7 | 0.00 | 0.00 | 0.00 | 61 | 1016.2 |
| 20260906034550 | 21 | 309 | 3.2 | 9.7 | 0.00 | 0.00 | 0.00 | 61 | 1017.5 |
| 20260906034154 | 21 | 1 | 3.2 | 9.7 | 0.00 | 0.00 | 0.00 | 61 | 1016.2 |
| 20260906033651 | 21 | 348 | 3.2 | 9.7 | 0.00 | 0.00 | 0.00 | 61 | 1016.1 |
| 20260906033127 | 21 | 16 | 3.2 | 11.3 | 0.00 | 0.00 | 0.00 | 61 | 1016.1 |
| 20260906033033 | 21 | 229 | 1.6 | 12.9 | 0.00 | 0.00 | 0.00 | 60 | 1017.3 |
| 20260906032626 | 21 | 63 | 3.2 | 11.3 | 0.00 | 0.00 | 0.00 | 61 | 1016.0 |
| 20260906032056 | 21 | 340 | 3.2 | 14.5 | 0.00 | 0.00 | 0.00 | 61 | 1015.9 |
| 20260906031552 | 21 | 102 | 4.8 | 14.5 | 0.00 | 0.00 | 0.00 | 61 | 1015.8 |
| 20260906031531 | 21 | 93 | 4.8 | 16.1 | 0.00 | 0.00 | 0.00 | 60 | 1017.1 |
| 20260906031046 | 21 | 138 | 4.8 | 14.5 | 0.00 | 0.00 | 0.00 | 61 | 1015.8 |
| 20260906030518 | 21 | 108 | 3.2 | 12.9 | 0.00 | 0.00 | 0.00 | 61 | 1015.8 |
| 20260906030029 | 21 | 85 | 3.2 | 12.9 | 0.00 | 0.00 | 0.00 | 61 | 1017.1 |
| 20260906030012 | 21 | 6 | 3.2 | 11.3 | 0.00 | 0.00 | 0.00 | 61 | 1015.8 |
| 20260906024503 | 22 | 51 | 3.2 | 12.9 | 0.00 | 0.00 | 0.00 | 60 | 1017.1 |
| 20260906023932 | 22 | 28 | 3.2 | 11.3 | 0.00 | 0.00 | 0.00 | 60 | 1015.7 |
| 20260906023433 | 22 | 319 | 4.8 | 11.3 | 0.00 | 0.00 | 0.00 | 60 | 1015.6 |
| 20260906023003 | 22 | 344 | 3.2 | 14.5 | 0.00 | 0.00 | 0.00 | 60 | 1016.8 |
| 20260906022903 | 22 | 15 | 4.8 | 12.9 | 0.00 | 0.00 | 0.00 | 60 | 1015.5 |
| 20260906022403 | 22 | 15 | 6.4 | 12.9 | 0.00 | 0.00 | 0.00 | 60 | 1015.5 |
| 20260906021829 | 22 | 354 | 4.8 | 9.7 | 0.00 | 0.00 | 0.00 | 61 | 1015.6 |
| 20260906021510 | 22 | 36 | 4.8 | 11.3 | 0.00 | 0.00 | 0.00 | 60 | 1016.8 |
| 20260906020803 | 22 | 13 | 4.8 | 11.3 | 0.00 | 0.00 | 0.00 | 61 | 1015.5 |
| 20260906020303 | 22 | 320 | 4.8 | 9.7 | 0.00 | 0.00 | 0.00 | 61 | 1015.6 |
| 20260906020013 | 22 | 344 | 3.2 | 9.7 | 0.00 | 0.00 | 0.00 | 60 | 1016.8 |
| 20260906015744 | 23 | 314 | 4.8 | 11.3 | 0.00 | 0.00 | 0.00 | 61 | 1015.5 |
| 20260906015248 | 23 | 336 | 4.8 | 9.7 | 0.00 | 0.00 | 0.00 | 61 | 1015.5 |
| 20260906014744 | 23 | 20 | 6.4 | 11.3 | 0.00 | 0.00 | 0.00 | 61 | 1015.3 |
| 20260906014505 | 22 | 51 | 6.4 | 12.9 | 0.00 | 0.00 | 0.00 | 60 | 1016.5 |
| 20260906014243 | 23 | 9 | 6.4 | 14.5 | 0.00 | 0.00 | 0.00 | 61 | 1015.2 |
| 20260906013725 | 23 | 13 | 8.0 | 14.5 | 0.00 | 0.00 | 0.00 | 61 | 1015.2 |
| 20260906013228 | 23 | 42 | 8.0 | 12.9 | 0.00 | 0.00 | 0.00 | 61 | 1015.1 |
| 20260906013004 | 22 | 20 | 6.4 | 14.5 | 0.00 | 0.00 | 0.00 | 60 | 1016.4 |
| 20260906012158 | 23 | 28 | 6.4 | 11.3 | 0.00 | 0.00 | 0.00 | 61 | 1015.0 |
| 20260906011634 | 23 | 345 | 4.8 | 8.0 | 0.00 | 0.00 | 0.00 | 61 | 1014.9 |
| 20260906011504 | 23 | 16 | 4.8 | 8.0 | 0.00 | 0.00 | 0.00 | 60 | 1016.1 |
| 20260906011127 | 23 | 1 | 4.8 | 8.0 | 0.00 | 0.00 | 0.00 | 61 | 1014.9 |
| 20260906010605 | 23 | 1 | 4.8 | 8.0 | 0.00 | 0.00 | 0.00 | 61 | 1014.8 |
| 20260906010056 | 23 | 344 | 4.8 | 8.0 | 0.00 | 0.00 | 0.00 | 61 | 1014.9 |
| 20260906010004 | 23 | 341 | 4.8 | 8.0 | 0.00 | 0.00 | 0.00 | 61 | 1016.2 |
| 20260906005549 | 23 | 8 | 3.2 | 6.4 | 0.00 | 0.00 | 0.00 | 61 | 1015.0 |
| 20260906005020 | 23 | 342 | 3.2 | 6.4 | 0.00 | 0.00 | 0.00 | 61 | 1014.9 |
| 20260906004519 | 24 | 15 | 3.2 | 4.8 | 0.00 | 0.00 | 0.00 | 61 | 1015.0 |
| 20260906004517 | 23 | 9 | 3.2 | 6.4 | 0.00 | 0.00 | 0.00 | 60 | 1016.1 |
| 20260906003951 | 24 | 344 | 3.2 | 6.4 | 0.00 | 0.00 | 0.00 | 61 | 1015.0 |
| 20260906003449 | 24 | 20 | 3.2 | 6.4 | 0.00 | 0.00 | 0.00 | 61 | 1015.0 |
| 20260906003003 | 24 | 9 | 1.6 | 6.4 | 0.00 | 0.00 | 0.00 | 60 | 1016.2 |
| 20260906002920 | 24 | 13 | 3.2 | 6.4 | 0.00 | 0.00 | 0.00 | 61 | 1015.0 |
| 20260906002413 | 24 | 1 | 3.2 | 6.4 | 0.00 | 0.00 | 0.00 | 61 | 1015.0 |
| 20260906001849 | 25 | 349 | 3.2 | 6.4 | 0.00 | 0.00 | 0.00 | 60 | 1015.1 |
| 20260906001504 | 24 | 30 | 3.2 | 8.0 | 0.00 | 0.00 | 0.00 | 60 | 1016.3 |
| 20260906001342 | 25 | 23 | 4.8 | 8.0 | 0.00 | 0.00 | 0.00 | 60 | 1015.0 |
| 20260906000840 | 25 | 28 | 4.8 | 8.0 | 0.00 | 0.00 | 0.00 | 60 | 1015.1 |
| 20260906000334 | 25 | 347 | 4.8 | 6.4 | 0.00 | 0.00 | 0.00 | 60 | 1015.1 |
| 20260906000008 | 25 | 18 | 3.2 | 11.3 | 0.00 | 0.00 | 0.00 | 59 | 1016.3 |
| 20260905235810 | 25 | 1 | 4.8 | 9.7 | 0.00 | 0.00 | 0.00 | 59 | 1015.1 |
| 20260905235306 | 25 | 11 | 4.8 | 9.7 | 0.00 | 0.00 | 0.00 | 59 | 1015.0 |
| 20260905234735 | 25 | 13 | 4.8 | 9.7 | 0.00 | 0.00 | 0.00 | 59 | 1015.0 |
| 20260905234506 | 25 | 325 | 4.8 | 9.7 | 0.00 | 0.00 | 0.00 | 59 | 1016.0 |
| 20260905234234 | 25 | 347 | 6.4 | 11.3 | 0.00 | 0.00 | 0.00 | 59 | 1015.0 |
| 20260905233710 | 25 | 6 | 6.4 | 11.3 | 0.00 | 0.00 | 0.00 | 59 | 1015.0 |
| 20260905233004 | 25 | 336 | 6.4 | 14.5 | 0.00 | 0.00 | 0.00 | 59 | 1016.2 |
| 20260905232133 | 25 | 6 | 6.4 | 11.3 | 0.00 | 0.00 | 0.00 | 59 | 1015.1 |
| 20260905231617 | 25 | 354 | 6.4 | 11.3 | 0.00 | 0.00 | 0.00 | 58 | 1015.0 |
| 20260905231527 | 25 | 346 | 6.4 | 12.9 | 0.00 | 0.00 | 0.00 | 58 | 1016.2 |
| 20260905231117 | 25 | 348 | 6.4 | 9.7 | 0.00 | 0.00 | 0.00 | 58 | 1015.0 |
| 20260905230616 | 26 | 11 | 8.0 | 14.5 | 0.00 | 0.00 | 0.00 | 58 | 1015.1 |
| 20260905230004 | 25 | 342 | 6.4 | 19.3 | 0.00 | 0.00 | 0.00 | 57 | 1016.2 |
| 20260905225546 | 26 | 6 | 9.7 | 17.7 | 0.00 | 0.00 | 0.00 | 57 | 1015.0 |
| 20260905225038 | 26 | 32 | 9.7 | 16.1 | 0.00 | 0.00 | 0.00 | 58 | 1014.8 |
| 20260905224509 | 26 | 16 | 9.7 | 17.7 | 0.00 | 0.00 | 0.00 | 57 | 1015.8 |
| 20260905223942 | 26 | 37 | 9.7 | 19.3 | 0.00 | 0.00 | 0.00 | 57 | 1014.6 |
| 20260905223432 | 26 | 23 | 11.3 | 19.3 | 0.00 | 0.00 | 0.00 | 57 | 1014.6 |
| 20260905223021 | 26 | 340 | 8.0 | 22.5 | 0.00 | 0.00 | 0.00 | 57 | 1015.7 |
| 20260905222422 | 26 | 350 | 11.3 | 20.9 | 0.00 | 0.00 | 0.00 | 57 | 1014.7 |
| 20260905221913 | 26 | 18 | 9.7 | 20.9 | 0.00 | 0.00 | 0.00 | 58 | 1014.8 |
| 20260905221509 | 26 | 349 | 9.7 | 22.5 | 0.00 | 0.00 | 0.00 | 57 | 1015.8 |
| 20260905221408 | 26 | 9 | 11.3 | 24.1 | 0.00 | 0.00 | 0.00 | 58 | 1014.7 |
| 20260905220900 | 26 | 28 | 11.3 | 24.1 | 0.00 | 0.00 | 0.00 | 58 | 1014.6 |
| 20260905220337 | 26 | 15 | 9.7 | 20.9 | 0.00 | 0.00 | 0.00 | 58 | 1014.6 |
| 20260905220007 | 26 | 22 | 9.7 | 22.5 | 0.00 | 0.00 | 0.00 | 58 | 1015.7 |
| 20260905215306 | 26 | 344 | 12.9 | 25.7 | 0.00 | 0.00 | 0.00 | 57 | 1014.7 |
| 20260905214738 | 27 | 18 | 11.3 | 25.7 | 0.00 | 0.00 | 0.00 | 57 | 1014.6 |
| 20260905214510 | 26 | 18 | 16.1 | 27.4 | 0.00 | 0.00 | 0.00 | 56 | 1015.6 |
| 20260905214226 | 27 | 6 | 9.7 | 22.5 | 0.00 | 0.00 | 0.00 | 57 | 1014.6 |
| 20260905213718 | 27 | 25 | 11.3 | 22.5 | 0.00 | 0.00 | 0.00 | 56 | 1014.4 |
| 20260905213013 | 27 | 21 | 11.3 | 25.7 | 0.00 | 0.00 | 0.00 | 56 | 1015.6 |
| 20260905212647 | 27 | 35 | 12.9 | 24.1 | 0.00 | 0.00 | 0.00 | 56 | 1014.5 |
| 20260905212139 | 27 | 334 | 12.9 | 20.9 | 0.00 | 0.00 | 0.00 | 56 | 1014.5 |
| 20260905211639 | 28 | 42 | 11.3 | 20.9 | 0.00 | 0.00 | 0.00 | 55 | 1014.4 |
| 20260905211520 | 28 | 25 | 12.9 | 22.5 | 0.00 | 0.00 | 0.00 | 54 | 1015.5 |
| 20260905211136 | 28 | 25 | 12.9 | 20.9 | 0.00 | 0.00 | 0.00 | 55 | 1014.4 |
| 20260905210640 | 28 | 11 | 12.9 | 20.9 | 0.00 | 0.00 | 0.00 | 55 | 1014.3 |
| 20260905210116 | 28 | 16 | 12.9 | 22.5 | 0.00 | 0.00 | 0.00 | 55 | 1014.3 |
| 20260905210021 | 28 | 23 | 14.5 | 24.1 | 0.00 | 0.00 | 0.00 | 54 | 1015.4 |
| 20260905205615 | 28 | 39 | 14.5 | 22.5 | 0.00 | 0.00 | 0.00 | 54 | 1014.3 |
| 20260905205041 | 28 | 28 | 12.9 | 20.9 | 0.00 | 0.00 | 0.00 | 54 | 1014.3 |
| 20260905204513 | 28 | 344 | 11.3 | 25.7 | 0.00 | 0.00 | 0.00 | 55 | 1015.3 |
| 20260905204007 | 28 | 27 | 12.9 | 24.1 | 0.00 | 0.00 | 0.00 | 55 | 1014.4 |
| 20260905203438 | 28 | 341 | 12.9 | 24.1 | 0.00 | 0.00 | 0.00 | 54 | 1014.3 |
| 20260905203008 | 28 | 27 | 12.9 | 22.5 | 0.00 | 0.00 | 0.00 | 54 | 1015.4 |
| 20260905202911 | 28 | 9 | 11.3 | 20.9 | 0.00 | 0.00 | 0.00 | 55 | 1014.4 |
| 20260905201852 | 29 | 13 | 9.7 | 17.7 | 0.00 | 0.00 | 0.00 | 54 | 1014.3 |
| 20260905201522 | 28 | 15 | 9.7 | 19.3 | 0.00 | 0.00 | 0.00 | 53 | 1015.4 |
| 20260905201331 | 29 | 341 | 11.3 | 17.7 | 0.00 | 0.00 | 0.00 | 53 | 1014.4 |
| 20260905200802 | 29 | 351 | 9.7 | 17.7 | 0.00 | 0.00 | 0.00 | 53 | 1014.3 |
| 20260905200254 | 29 | 1 | 8.0 | 12.9 | 0.00 | 0.00 | 0.00 | 54 | 1014.2 |
| 20260905200023 | 28 | 34 | 8.0 | 14.5 | 0.00 | 0.00 | 0.00 | 54 | 1015.4 |
| 20260905195727 | 29 | 15 | 8.0 | 12.9 | 0.00 | 0.00 | 0.00 | 54 | 1014.4 |
| 20260905194657 | 29 | 16 | 9.7 | 19.3 | 0.00 | 0.00 | 0.00 | 53 | 1014.5 |
| 20260905194526 | 29 | 25 | 11.3 | 20.9 | 0.00 | 0.00 | 0.00 | 53 | 1015.5 |
| 20260905194118 | 29 | 9 | 8.0 | 16.1 | 0.00 | 0.00 | 0.00 | 54 | 1014.5 |
| 20260905193618 | 29 | 349 | 8.0 | 17.7 | 0.00 | 0.00 | 0.00 | 54 | 1014.5 |
| 20260905193117 | 29 | 331 | 9.7 | 19.3 | 0.00 | 0.00 | 0.00 | 54 | 1014.5 |
| 20260905193020 | 28 | 20 | 11.3 | 20.9 | 0.00 | 0.00 | 0.00 | 54 | 1015.7 |
| 20260905191535 | 28 | 25 | 9.7 | 19.3 | 0.00 | 0.00 | 0.00 | 54 | 1014.6 |
| 20260905191511 | 28 | 9 | 9.7 | 20.9 | 0.00 | 0.00 | 0.00 | 53 | 1015.6 |
| 20260905191033 | 28 | 34 | 9.7 | 19.3 | 0.00 | 0.00 | 0.00 | 54 | 1014.6 |
| 20260905190519 | 28 | 347 | 11.3 | 19.3 | 0.00 | 0.00 | 0.00 | 55 | 1014.6 |
| 20260905190014 | 28 | 34 | 11.3 | 20.9 | 0.00 | 0.00 | 0.00 | 53 | 1015.7 |
| 20260905185450 | 29 | 53 | 9.7 | 19.3 | 0.00 | 0.00 | 0.00 | 55 | 1014.7 |
| 20260905184953 | 29 | 336 | 9.7 | 19.3 | 0.00 | 0.00 | 0.00 | 54 | 1014.8 |
| 20260905184515 | 28 | 347 | 9.7 | 22.5 | 0.00 | 0.00 | 0.00 | 53 | 1015.9 |
| 20260905184423 | 29 | 338 | 11.3 | 20.9 | 0.00 | 0.00 | 0.00 | 53 | 1014.8 |
| 20260905183854 | 29 | 346 | 11.3 | 20.9 | 0.00 | 0.00 | 0.00 | 54 | 1014.8 |
| 20260905183345 | 29 | 325 | 11.3 | 17.7 | 0.00 | 0.00 | 0.00 | 54 | 1014.8 |
| 20260905183037 | 29 | 27 | 9.7 | 19.3 | 0.00 | 0.00 | 0.00 | 53 | 1015.9 |
| 20260905182843 | 29 | 32 | 11.3 | 17.7 | 0.00 | 0.00 | 0.00 | 54 | 1014.8 |
| 20260905182341 | 29 | 39 | 9.7 | 17.7 | 0.00 | 0.00 | 0.00 | 54 | 1014.9 |
| 20260905181810 | 29 | 11 | 9.7 | 17.7 | 0.00 | 0.00 | 0.00 | 54 | 1014.9 |
| 20260905181531 | 28 | 22 | 9.7 | 19.3 | 0.00 | 0.00 | 0.00 | 53 | 1016.0 |
| 20260905180737 | 28 | 15 | 9.7 | 19.3 | 0.00 | 0.00 | 0.00 | 54 | 1015.0 |
| 20260905180236 | 28 | 44 | 9.7 | 19.3 | 0.00 | 0.00 | 0.00 | 54 | 1014.9 |
| 20260905180012 | 28 | 13 | 9.7 | 19.3 | 0.00 | 0.00 | 0.00 | 54 | 1016.0 |
| 20260905175728 | 28 | 4 | 9.7 | 16.1 | 0.00 | 0.00 | 0.00 | 54 | 1014.9 |
| 20260905175226 | 28 | 21 | 9.7 | 16.1 | 0.00 | 0.00 | 0.00 | 54 | 1015.0 |
| 20260905174705 | 28 | 1 | 9.7 | 17.7 | 0.00 | 0.00 | 0.00 | 55 | 1015.0 |
| 20260905174522 | 28 | 13 | 6.4 | 19.3 | 0.00 | 0.00 | 0.00 | 54 | 1016.1 |
| 20260905174207 | 28 | 1 | 9.7 | 17.7 | 0.00 | 0.00 | 0.00 | 54 | 1015.0 |
| 20260905173654 | 28 | 11 | 9.7 | 16.1 | 0.00 | 0.00 | 0.00 | 54 | 1015.0 |
| 20260905173156 | 28 | 16 | 9.7 | 16.1 | 0.00 | 0.00 | 0.00 | 55 | 1015.0 |
| 20260905173022 | 28 | 11 | 8.0 | 17.7 | 0.00 | 0.00 | 0.00 | 54 | 1016.0 |
| 20260905172146 | 28 | 356 | 9.7 | 14.5 | 0.00 | 0.00 | 0.00 | 55 | 1015.1 |
| 20260905171622 | 28 | 20 | 9.7 | 19.3 | 0.00 | 0.00 | 0.00 | 54 | 1015.0 |
| 20260905171512 | 28 | 39 | 8.0 | 20.9 | 0.00 | 0.00 | 0.00 | 53 | 1016.2 |
| 20260905171117 | 28 | 20 | 9.7 | 16.1 | 0.00 | 0.00 | 0.00 | 54 | 1015.0 |
| 20260905170552 | 28 | 6 | 9.7 | 17.7 | 0.00 | 0.00 | 0.00 | 55 | 1015.0 |
| 20260905170045 | 28 | 18 | 9.7 | 17.7 | 0.00 | 0.00 | 0.00 | 54 | 1014.9 |
| 20260905170032 | 28 | 54 | 11.3 | 17.7 | 0.00 | 0.00 | 0.00 | 53 | 1016.1 |
| 20260905165517 | 28 | 6 | 9.7 | 16.1 | 0.00 | 0.00 | 0.00 | 54 | 1015.0 |
| 20260905165015 | 28 | 15 | 9.7 | 16.1 | 0.00 | 0.00 | 0.00 | 55 | 1015.0 |
| 20260905164521 | 28 | 17 | 9.7 | 17.7 | 0.00 | 0.00 | 0.00 | 55 | 1016.0 |
| 20260905164504 | 28 | 18 | 8.0 | 16.1 | 0.00 | 0.00 | 0.00 | 55 | 1015.0 |
| 20260905164003 | 28 | 1 | 8.0 | 14.5 | 0.00 | 0.00 | 0.00 | 55 | 1014.9 |
| 20260905163433 | 28 | 27 | 9.7 | 16.1 | 0.00 | 0.00 | 0.00 | 55 | 1015.0 |
| 20260905163024 | 28 | 336 | 9.7 | 17.7 | 0.00 | 0.00 | 0.00 | 54 | 1016.4 |
| 20260905162933 | 28 | 6 | 9.7 | 16.1 | 0.00 | 0.00 | 0.00 | 55 | 1015.1 |
| 20260905162404 | 28 | 331 | 9.7 | 19.3 | 0.00 | 0.00 | 0.00 | 55 | 1015.1 |
| 20260905161527 | 27 | 38 | 8.0 | 17.7 | 0.00 | 0.00 | 0.00 | 54 | 1016.3 |
| 20260905161326 | 28 | 25 | 9.7 | 16.1 | 0.00 | 0.00 | 0.00 | 55 | 1015.1 |
| 20260905160318 | 28 | 16 | 8.0 | 16.1 | 0.00 | 0.00 | 0.00 | 55 | 1015.1 |
| 20260905160023 | 27 | 24 | 8.0 | 20.9 | 0.00 | 0.00 | 0.00 | 55 | 1016.4 |
| 20260905155754 | 28 | 339 | 9.7 | 19.3 | 0.00 | 0.00 | 0.00 | 55 | 1015.1 |
| 20260905155253 | 28 | 9 | 9.7 | 19.3 | 0.00 | 0.00 | 0.00 | 55 | 1015.1 |
| 20260905154724 | 28 | 8 | 11.3 | 17.7 | 0.00 | 0.00 | 0.00 | 55 | 1015.0 |
| 20260905154518 | 27 | 11 | 9.7 | 19.3 | 0.00 | 0.00 | 0.00 | 55 | 1016.2 |
| 20260905154218 | 28 | 351 | 11.3 | 16.1 | 0.00 | 0.00 | 0.00 | 55 | 1015.1 |
| 20260905153714 | 28 | 356 | 9.7 | 19.3 | 0.00 | 0.00 | 0.00 | 56 | 1015.0 |
| 20260905153209 | 28 | 44 | 9.7 | 16.1 | 0.00 | 0.00 | 0.00 | 55 | 1014.9 |
| 20260905153026 | 27 | 17 | 8.0 | 20.9 | 0.00 | 0.00 | 0.00 | 55 | 1016.1 |
| 20260905152644 | 28 | 21 | 9.7 | 19.3 | 0.00 | 0.00 | 0.00 | 56 | 1014.8 |
| 20260905152136 | 27 | 25 | 9.7 | 14.5 | 0.00 | 0.00 | 0.00 | 56 | 1014.7 |
| 20260905151614 | 27 | 4 | 9.7 | 16.1 | 0.00 | 0.00 | 0.00 | 56 | 1014.6 |
| 20260905151527 | 27 | 349 | 8.0 | 17.7 | 0.00 | 0.00 | 0.00 | 55 | 1015.6 |
| 20260905151044 | 27 | 356 | 9.7 | 17.7 | 0.00 | 0.00 | 0.00 | 56 | 1014.6 |
| 20260905150543 | 27 | 23 | 9.7 | 17.7 | 0.00 | 0.00 | 0.00 | 56 | 1014.5 |
| 20260905150030 | 27 | 22 | 8.0 | 16.1 | 0.00 | 0.00 | 0.00 | 57 | 1015.5 |
| 20260905150021 | 27 | 351 | 8.0 | 14.5 | 0.00 | 0.00 | 0.00 | 57 | 1014.5 |
| 20260905145520 | 27 | 13 | 8.0 | 16.1 | 0.00 | 0.00 | 0.00 | 57 | 1014.3 |
| 20260905145021 | 27 | 15 | 6.4 | 16.1 | 0.00 | 0.00 | 0.00 | 58 | 1014.4 |
| 20260905144533 | 26 | 342 | 6.4 | 14.5 | 0.00 | 0.00 | 0.00 | 58 | 1015.2 |
| 20260905144523 | 27 | 18 | 6.4 | 12.9 | 0.00 | 0.00 | 0.00 | 59 | 1014.2 |